Time;durP1;ratioP1;P1;durP2;ratioP2;P2;SDS_P1;SDS_P2;PMS_P1;PMS_P2;Temp;Humidity;BMP_temperature;BMP_pressure;BME280_temperature;BME280_humidity;BME280_pressure;Samples;Min_cycle;Max_cycle;Signal;HPM_P1;HPM_P2
2022/08/20 00:03:49;;;;;;;3.60;3.40;;;23.10;87.70;;;;;;10443299;28;20201;-79
2022/08/20 00:08:52;;;;;;;3.43;3.23;;;23.00;87.10;;;;;;10457477;28;20240;-79
2022/08/20 00:13:58;;;;;;;4.10;3.03;;;23.00;87.50;;;;;;10490508;28;20207;-79
2022/08/20 00:19:01;;;;;;;3.23;3.03;;;23.00;87.40;;;;;;10455007;28;20272;-79
2022/08/20 00:24:05;;;;;;;3.17;3.07;;;22.90;89.00;;;;;;10483440;28;20206;-79
2022/08/20 00:29:08;;;;;;;2.97;2.87;;;22.90;88.00;;;;;;10466587;28;20225;-79
2022/08/20 00:34:10;;;;;;;2.80;2.67;;;22.80;88.90;;;;;;10485430;28;20186;-79
2022/08/20 00:39:13;;;;;;;3.07;2.70;;;22.80;88.50;;;;;;10490103;28;20652;-79
2022/08/20 00:44:20;;;;;;;2.97;2.80;;;22.80;88.50;;;;;;10526873;28;20196;-79
2022/08/20 00:49:25;;;;;;;2.70;2.60;;;22.80;88.70;;;;;;10498828;28;20660;-79
2022/08/20 00:54:33;;;;;;;2.50;2.40;;;22.80;88.40;;;;;;10500301;28;20204;-79
2022/08/20 00:59:40;;;;;;;3.23;2.80;;;22.80;88.70;;;;;;10488032;28;20215;-79
2022/08/20 01:04:44;;;;;;;2.33;2.23;;;22.80;88.60;;;;;;10525135;28;20350;-79
2022/08/20 01:09:48;;;;;;;2.93;2.83;;;22.80;89.70;;;;;;10502219;28;20208;-80
2022/08/20 01:14:51;;;;;;;3.77;3.27;;;22.80;88.70;;;;;;10502522;28;20197;-81
2022/08/20 01:19:58;;;;;;;3.00;2.90;;;22.90;89.00;;;;;;10520944;28;20299;-80
2022/08/20 01:25:07;;;;;;;3.30;3.10;;;22.90;89.10;;;;;;10505272;28;20201;-78
2022/08/20 01:30:11;;;;;;;3.20;3.10;;;22.90;88.40;;;;;;10493575;28;20311;-80
2022/08/20 01:35:19;;;;;;;4.50;2.70;;;22.90;88.20;;;;;;10524246;28;20596;-80
2022/08/20 01:40:35;;;;;;;3.53;3.23;;;22.90;88.80;;;;;;10517335;28;20290;-79
2022/08/20 01:45:39;;;;;;;2.97;2.80;;;22.90;88.20;;;;;;10526394;28;20332;-79
2022/08/20 01:50:44;;;;;;;2.77;2.60;;;23.00;88.90;;;;;;10518215;28;20243;-79
2022/08/20 01:55:46;;;;;;;2.67;2.50;;;23.00;88.00;;;;;;10533840;28;20278;-78
2022/08/20 02:00:50;;;;;;;2.57;2.47;;;22.90;87.90;;;;;;10498236;28;20295;-78
2022/08/20 02:05:53;;;;;;;2.77;2.57;;;22.90;88.00;;;;;;10494398;28;20245;-79
2022/08/20 02:10:56;;;;;;;2.97;2.77;;;22.90;89.10;;;;;;10529286;28;20299;-79
2022/08/20 02:15:59;;;;;;;2.90;2.70;;;22.90;88.90;;;;;;10534819;28;20253;-79
2022/08/20 02:21:02;;;;;;;2.67;2.57;;;22.90;89.10;;;;;;10541874;28;20239;-79
2022/08/20 02:26:06;;;;;;;3.20;3.00;;;22.80;89.20;;;;;;10506876;28;20187;-79
2022/08/20 02:31:09;;;;;;;2.70;2.50;;;22.80;89.50;;;;;;10528216;28;20425;-79
2022/08/20 02:36:12;;;;;;;2.87;2.77;;;22.80;89.40;;;;;;10500625;28;20215;-79
2022/08/20 02:41:15;;;;;;;3.00;2.80;;;22.80;89.10;;;;;;10509595;28;20347;-79
2022/08/20 02:46:18;;;;;;;2.93;2.83;;;22.70;89.60;;;;;;10499667;28;20199;-79
2022/08/20 02:51:21;;;;;;;2.93;2.83;;;22.70;89.60;;;;;;10534262;28;20250;-79
2022/08/20 02:56:23;;;;;;;2.90;2.70;;;22.70;90.10;;;;;;10501585;28;20208;-79
2022/08/20 03:01:27;;;;;;;3.20;3.10;;;22.70;89.90;;;;;;10537289;28;20707;-81
2022/08/20 03:06:30;;;;;;;3.10;3.00;;;22.60;89.60;;;;;;10520022;28;20283;-79
2022/08/20 03:11:33;;;;;;;3.00;2.90;;;22.60;90.10;;;;;;10532881;28;20692;-79
2022/08/20 03:16:37;;;;;;;3.83;3.73;;;22.60;90.20;;;;;;10517858;28;20203;-79
2022/08/20 03:21:39;;;;;;;3.40;3.30;;;22.60;89.60;;;;;;10532124;28;20205;-79
2022/08/20 03:26:42;;;;;;;3.33;3.13;;;22.60;90.00;;;;;;10503122;28;20196;-79
2022/08/20 03:31:45;;;;;;;3.90;3.67;;;22.50;90.20;;;;;;10531341;28;20331;-79
2022/08/20 03:36:47;;;;;;;3.60;3.50;;;22.50;90.30;;;;;;10515467;28;20196;-79
2022/08/20 03:41:49;;;;;;;3.10;3.00;;;22.50;90.20;;;;;;10533011;28;20295;-79
2022/08/20 03:46:53;;;;;;;3.70;3.60;;;22.50;90.20;;;;;;10496429;28;20192;-79
2022/08/20 03:51:55;;;;;;;4.03;3.60;;;22.50;89.80;;;;;;10514038;28;20664;-79
2022/08/20 03:56:57;;;;;;;3.73;3.43;;;22.50;90.40;;;;;;10492970;28;20210;-79
2022/08/20 04:02:01;;;;;;;4.20;4.00;;;22.60;90.60;;;;;;10530923;28;20759;-79
2022/08/20 04:07:10;;;;;;;3.70;3.40;;;22.60;90.30;;;;;;10493414;28;20196;-79
2022/08/20 04:12:12;;;;;;;3.60;3.50;;;22.60;90.40;;;;;;10532884;28;20217;-79
2022/08/20 04:17:17;;;;;;;4.20;3.80;;;22.60;90.10;;;;;;10513192;28;20196;-79
2022/08/20 04:22:20;;;;;;;3.80;3.60;;;22.70;90.00;;;;;;10533339;28;20637;-79
2022/08/20 04:27:22;;;;;;;3.90;3.70;;;22.70;90.00;;;;;;10493975;28;20610;-81
2022/08/20 04:32:25;;;;;;;4.70;4.50;;;22.70;90.10;;;;;;10544292;28;20258;-81
2022/08/20 04:37:27;;;;;;;4.50;4.20;;;22.70;90.60;;;;;;10516406;28;20277;-81
2022/08/20 04:42:29;;;;;;;3.93;3.63;;;22.70;90.30;;;;;;10545298;28;20209;-79
2022/08/20 04:47:32;;;;;;;4.40;4.00;;;22.70;91.30;;;;;;10516044;28;20196;-79
2022/08/20 04:52:36;;;;;;;5.10;4.80;;;22.60;92.00;;;;;;10539233;28;20252;-79
2022/08/20 04:57:38;;;;;;;4.70;4.40;;;22.60;92.70;;;;;;10468861;28;20262;-79
2022/08/20 05:02:42;;;;;;;4.63;4.23;;;22.60;93.10;;;;;;10522061;28;20196;-79
2022/08/20 05:07:45;;;;;;;5.23;4.97;;;22.50;92.80;;;;;;10459234;28;20192;-79
2022/08/20 05:12:47;;;;;;;5.40;5.10;;;22.50;93.00;;;;;;10518046;28;20216;-79
2022/08/20 05:17:55;;;;;;;5.20;4.80;;;22.50;92.70;;;;;;10507964;28;20196;-79
2022/08/20 05:22:58;;;;;;;4.87;4.60;;;22.50;92.60;;;;;;10536638;28;20204;-79
2022/08/20 05:28:02;;;;;;;4.70;4.50;;;22.50;92.10;;;;;;10473811;28;20219;-78
2022/08/20 05:33:07;;;;;;;4.90;4.60;;;22.50;92.20;;;;;;10527541;28;20209;-78
2022/08/20 05:38:15;;;;;;;5.60;5.30;;;22.40;92.20;;;;;;10499842;28;20727;-78
2022/08/20 05:43:17;;;;;;;5.20;4.97;;;22.40;92.20;;;;;;10509317;28;20197;-81
2022/08/20 05:48:23;;;;;;;4.17;3.77;;;22.40;92.50;;;;;;10499586;28;20220;-79
2022/08/20 05:53:25;;;;;;;4.57;4.30;;;22.40;92.60;;;;;;10526805;28;20228;-80
2022/08/20 05:58:29;;;;;;;5.90;5.60;;;22.40;92.20;;;;;;10447145;28;20257;-79
2022/08/20 06:08:52;;;;;;;6.60;6.10;;;22.50;92.40;;;;;;10499981;28;20701;-79
2022/08/20 06:13:54;;;;;;;5.63;5.23;;;22.60;92.10;;;;;;10524807;28;20210;-79
2022/08/20 06:18:58;;;;;;;5.63;5.33;;;22.80;92.20;;;;;;10501271;28;20220;-78
2022/08/20 06:24:00;;;;;;;4.90;4.60;;;23.00;92.00;;;;;;10525174;28;20574;-81
2022/08/20 06:29:02;;;;;;;5.07;4.77;;;23.10;91.20;;;;;;10472534;28;20216;-81
2022/08/20 06:34:07;;;;;;;5.60;5.20;;;23.20;91.00;;;;;;10534775;28;20279;-79
2022/08/20 06:39:09;;;;;;;5.43;5.17;;;23.30;90.90;;;;;;10506185;28;20212;-77
2022/08/20 06:44:11;;;;;;;5.07;4.83;;;23.30;91.40;;;;;;10534607;28;20196;-80
2022/08/20 06:49:14;;;;;;;4.87;4.50;;;23.30;90.60;;;;;;10504554;28;20248;-79
2022/08/20 06:54:16;;;;;;;5.43;5.13;;;23.30;90.40;;;;;;10539897;28;20223;-79
2022/08/20 06:59:18;;;;;;;5.30;5.00;;;23.40;90.20;;;;;;10516563;28;20212;-78
2022/08/20 07:04:22;;;;;;;4.90;4.67;;;23.40;90.70;;;;;;10503191;28;20224;-78
2022/08/20 07:09:25;;;;;;;6.03;5.73;;;23.50;90.50;;;;;;10515895;28;20208;-79
2022/08/20 07:14:28;;;;;;;5.00;4.70;;;23.60;90.40;;;;;;10484512;28;20667;-80
2022/08/20 07:19:31;;;;;;;5.20;4.80;;;23.60;90.10;;;;;;10535403;28;20236;-78
2022/08/20 07:24:33;;;;;;;5.10;4.80;;;23.60;90.50;;;;;;10479361;28;20667;-79
2022/08/20 07:34:52;;;;;;;4.70;4.50;;;23.60;90.30;;;;;;10522586;28;20275;-79
2022/08/20 07:39:55;;;;;;;5.40;5.10;;;23.70;89.40;;;;;;10510938;28;20237;-79
2022/08/20 07:44:57;;;;;;;4.97;4.77;;;23.80;90.20;;;;;;10545089;28;20213;-79
2022/08/20 07:50:00;;;;;;;5.70;5.40;;;23.90;90.20;;;;;;10491235;28;20216;-79
2022/08/20 07:55:03;;;;;;;4.73;4.43;;;24.10;88.70;;;;;;10514036;28;20217;-79
2022/08/20 08:00:07;;;;;;;5.10;4.80;;;24.30;88.50;;;;;;10546245;28;20273;-79
2022/08/20 08:05:12;;;;;;;4.90;4.60;;;24.50;88.60;;;;;;10489534;28;20195;-79
2022/08/20 08:10:19;;;;;;;5.63;5.33;;;24.80;87.50;;;;;;10526435;28;20570;-80
2022/08/20 08:15:26;;;;;;;4.93;4.70;;;25.00;87.70;;;;;;10510298;28;20195;-80
2022/08/20 08:20:29;;;;;;;4.10;3.90;;;25.10;86.60;;;;;;10545199;28;20237;-80
2022/08/20 08:25:32;;;;;;;4.77;4.57;;;25.20;86.80;;;;;;10498230;28;20200;-80
2022/08/20 08:30:34;;;;;;;5.37;5.10;;;25.10;86.00;;;;;;10526944;28;20351;-80
2022/08/20 08:35:39;;;;;;;5.63;5.17;;;25.10;86.10;;;;;;10514869;28;20215;-80
2022/08/20 08:40:41;;;;;;;5.70;5.40;;;25.20;86.70;;;;;;10508750;28;20223;-80
2022/08/20 08:45:47;;;;;;;5.00;4.70;;;25.20;86.40;;;;;;10508094;28;20185;-80
2022/08/20 08:50:52;;;;;;;5.23;4.93;;;25.30;86.10;;;;;;10525152;28;20230;-80
2022/08/20 08:55:55;;;;;;;6.00;5.60;;;25.40;86.70;;;;;;10491681;28;20667;-80
2022/08/20 09:00:57;;;;;;;6.10;5.70;;;25.30;85.30;;;;;;10518778;28;20217;-80
2022/08/20 09:06:02;;;;;;;5.67;5.37;;;25.20;85.40;;;;;;10486025;28;20192;-80
2022/08/20 09:11:06;;;;;;;5.87;5.43;;;25.10;86.20;;;;;;10467864;28;20684;-80
2022/08/20 09:16:09;;;;;;;5.37;5.00;;;25.10;85.30;;;;;;10465293;28;20205;-80
2022/08/20 09:21:13;;;;;;;5.90;5.53;;;25.20;84.70;;;;;;10484537;28;20292;-79
2022/08/20 09:26:15;;;;;;;6.10;5.80;;;25.30;84.60;;;;;;10486917;28;20223;-80
2022/08/20 09:31:17;;;;;;;5.67;5.37;;;25.40;84.30;;;;;;10467146;28;20255;-79
2022/08/20 09:36:20;;;;;;;5.87;5.37;;;25.40;83.50;;;;;;10484943;28;20204;-80
2022/08/20 09:41:23;;;;;;;4.37;4.17;;;25.30;84.10;;;;;;10465876;28;20224;-79
2022/08/20 09:46:25;;;;;;;4.20;4.00;;;25.30;82.80;;;;;;10475400;28;20198;-80
2022/08/20 09:51:29;;;;;;;3.80;3.60;;;25.40;82.80;;;;;;10472367;28;20241;-80
2022/08/20 09:56:34;;;;;;;3.33;3.23;;;25.50;82.10;;;;;;10470064;28;20578;-80
2022/08/20 10:01:36;;;;;;;4.10;3.90;;;25.60;82.90;;;;;;10482976;28;20224;-80
2022/08/20 10:06:41;;;;;;;4.00;3.80;;;26.20;81.30;;;;;;10471839;28;20229;-80
2022/08/20 10:11:43;;;;;;;3.70;3.50;;;26.60;79.60;;;;;;10487630;28;20221;-80
2022/08/20 10:16:45;;;;;;;3.40;3.30;;;26.80;78.90;;;;;;10451763;28;20611;-80
2022/08/20 10:21:50;;;;;;;3.37;3.17;;;26.90;78.20;;;;;;10486462;28;20629;-80
2022/08/20 10:26:55;;;;;;;3.23;3.13;;;26.90;77.20;;;;;;10470062;28;20305;-80
2022/08/20 10:31:58;;;;;;;4.50;4.20;;;26.90;78.90;;;;;;10481759;28;20240;-80
2022/08/20 10:37:01;;;;;;;3.50;3.30;;;26.90;78.90;;;;;;10463221;28;20677;-80
2022/08/20 10:42:03;;;;;;;2.70;2.60;;;26.80;78.00;;;;;;10476136;28;20209;-80
2022/08/20 10:47:21;;;;;;;3.30;3.20;;;26.70;78.10;;;;;;10492505;28;20368;-81
2022/08/20 10:52:25;;;;;;;2.70;2.60;;;26.50;77.90;;;;;;10441063;28;20316;-81
2022/08/20 10:57:30;;;;;;;3.10;3.00;;;26.30;79.20;;;;;;10483735;28;20240;-79
2022/08/20 11:02:32;;;;;;;3.20;3.10;;;26.10;80.00;;;;;;10453052;28;20284;-81
2022/08/20 11:07:37;;;;;;;3.50;3.40;;;26.00;79.80;;;;;;10493285;28;20655;-80
2022/08/20 11:12:39;;;;;;;3.33;3.20;;;25.80;79.60;;;;;;10479985;28;20216;-81
2022/08/20 11:17:43;;;;;;;3.00;2.90;;;25.70;80.70;;;;;;10493235;28;20217;-79
2022/08/20 11:22:47;;;;;;;2.77;2.57;;;25.70;79.70;;;;;;10453073;28;20232;-79
2022/08/20 11:27:50;;;;;;;2.60;2.50;;;25.70;79.10;;;;;;10492711;28;20668;-79
2022/08/20 11:32:53;;;;;;;3.87;3.70;;;25.80;79.00;;;;;;10545542;28;20306;-80
2022/08/20 11:37:57;;;;;;;3.07;2.97;;;25.70;78.30;;;;;;10490826;28;20215;-79
2022/08/20 11:42:59;;;;;;;2.73;2.60;;;25.80;77.90;;;;;;10511517;28;20259;-79
2022/08/20 11:48:02;;;;;;;3.07;2.97;;;25.90;77.70;;;;;;10490724;28;20768;-79
2022/08/20 11:53:05;;;;;;;2.63;2.53;;;26.00;77.20;;;;;;10526326;28;20686;-79
2022/08/20 11:58:07;;;;;;;3.30;3.20;;;26.00;77.10;;;;;;10470804;28;20221;-80
2022/08/20 12:03:10;;;;;;;3.07;2.87;;;26.10;77.10;;;;;;10522184;28;20256;-79
2022/08/20 12:08:14;;;;;;;2.70;2.60;;;26.10;78.40;;;;;;10487363;28;20219;-80
2022/08/20 12:13:16;;;;;;;2.90;2.80;;;26.00;79.00;;;;;;10486372;28;20221;-79
2022/08/20 12:18:19;;;;;;;3.17;3.07;;;26.00;78.90;;;;;;10541768;28;20646;-79
2022/08/20 12:23:22;;;;;;;4.30;4.10;;;26.00;79.70;;;;;;10507402;28;20188;-80
2022/08/20 12:28:24;;;;;;;1.90;1.80;;;26.00;78.20;;;;;;10516580;28;20253;-80
2022/08/20 12:33:27;;;;;;;2.97;2.87;;;26.10;78.90;;;;;;10508566;28;20216;-79
2022/08/20 12:38:30;;;;;;;2.30;2.20;;;26.20;77.20;;;;;;10521702;28;20211;-80
2022/08/20 12:43:32;;;;;;;3.43;3.33;;;26.30;79.00;;;;;;10515271;28;20196;-79
2022/08/20 12:48:34;;;;;;;2.50;2.40;;;26.40;79.40;;;;;;10538537;28;20592;-80
2022/08/20 12:53:38;;;;;;;3.50;3.20;;;26.50;78.30;;;;;;10512843;28;20227;-80
2022/08/20 12:58:40;;;;;;;1.80;1.70;;;26.50;78.80;;;;;;10498231;28;20231;-80
2022/08/20 13:03:42;;;;;;;2.60;2.50;;;26.60;78.00;;;;;;10515175;28;20193;-80
2022/08/20 13:08:46;;;;;;;3.60;3.50;;;26.60;78.70;;;;;;10538063;28;20264;-80
2022/08/20 13:13:48;;;;;;;3.10;3.00;;;26.40;77.70;;;;;;10495872;28;20212;-80
2022/08/20 13:18:50;;;;;;;2.10;2.00;;;26.10;79.30;;;;;;10536448;28;20216;-82
2022/08/20 13:23:54;;;;;;;3.60;3.50;;;25.90;80.90;;;;;;10503061;28;20205;-80
2022/08/20 13:28:56;;;;;;;3.10;2.90;;;25.80;81.90;;;;;;10523085;28;20601;-80
2022/08/20 13:33:58;;;;;;;3.67;3.47;;;25.80;83.20;;;;;;10511430;28;20251;-80
2022/08/20 13:39:01;;;;;;;3.90;3.70;;;25.80;82.30;;;;;;10531199;28;20735;-79
2022/08/20 13:44:04;;;;;;;3.10;3.00;;;25.70;82.80;;;;;;10536312;28;20192;-82
2022/08/20 13:49:06;;;;;;;4.50;4.20;;;25.70;83.70;;;;;;10505305;28;20593;-80
2022/08/20 13:54:09;;;;;;;4.30;4.10;;;25.70;85.70;;;;;;10516165;28;20220;-80
2022/08/20 13:59:11;;;;;;;3.00;1.60;;;25.80;87.40;;;;;;10495186;28;20331;-80
2022/08/20 14:04:13;;;;;;;3.77;3.47;;;26.00;87.00;;;;;;10506116;28;20605;-79
2022/08/20 14:09:17;;;;;;;3.10;2.90;;;26.10;86.70;;;;;;10507915;28;20801;-79
2022/08/20 14:14:19;;;;;;;3.27;2.97;;;26.10;84.70;;;;;;10521808;28;20223;-80
2022/08/20 14:19:21;;;;;;;2.73;2.53;;;26.00;85.50;;;;;;10541020;28;20239;-80
2022/08/20 14:24:24;;;;;;;3.40;3.30;;;25.90;84.30;;;;;;10510720;28;20193;-80
2022/08/20 14:29:26;;;;;;;4.30;4.10;;;25.80;85.70;;;;;;10521558;28;20224;-81
2022/08/20 14:34:29;;;;;;;3.17;3.00;;;25.70;87.10;;;;;;10526778;28;20239;-80
2022/08/20 14:39:32;;;;;;;3.00;2.90;;;25.70;87.50;;;;;;10530591;28;20326;-80
2022/08/20 14:44:34;;;;;;;3.60;3.50;;;25.80;86.70;;;;;;10520882;28;20197;-80
2022/08/20 14:49:36;;;;;;;3.27;3.17;;;25.80;87.20;;;;;;10539796;28;20227;-81
2022/08/20 14:54:40;;;;;;;3.23;3.10;;;25.70;88.10;;;;;;10518330;28;20243;-80
2022/08/20 14:59:43;;;;;;;3.03;2.93;;;25.60;86.10;;;;;;10522138;28;20752;-80
2022/08/20 15:04:45;;;;;;;3.20;3.10;;;25.50;87.40;;;;;;10526194;28;20189;-80
2022/08/20 15:09:49;;;;;;;1.90;1.80;;;25.30;87.00;;;;;;10517506;28;20212;-80
2022/08/20 15:14:51;;;;;;;4.43;4.23;;;25.00;88.20;;;;;;10525660;28;20593;-80
2022/08/20 15:19:54;;;;;;;3.63;3.50;;;24.90;89.80;;;;;;10535599;28;20246;-80
2022/08/20 15:24:58;;;;;;;2.40;2.30;;;24.80;90.40;;;;;;10504544;28;20202;-80
2022/08/20 15:30:00;;;;;;;3.90;3.80;;;24.70;90.60;;;;;;10511654;28;20220;-80
2022/08/20 15:35:02;;;;;;;4.00;3.80;;;24.70;91.20;;;;;;10527257;28;20255;-80
2022/08/20 15:40:07;;;;;;;3.73;3.43;;;24.70;91.50;;;;;;10515583;28;20234;-80
2022/08/20 15:45:11;;;;;;;4.07;3.73;;;24.60;91.80;;;;;;10523830;28;20204;-80
2022/08/20 15:50:18;;;;;;;4.47;4.27;;;24.60;92.00;;;;;;10536051;28;20277;-80
2022/08/20 15:55:22;;;;;;;3.77;3.57;;;24.60;92.20;;;;;;10549171;28;20243;-80
2022/08/20 16:00:27;;;;;;;3.20;3.10;;;24.50;92.20;;;;;;10528944;28;20224;-80
2022/08/20 16:05:41;;;;;;;3.30;3.10;;;24.50;92.00;;;;;;10523251;28;20196;-80
2022/08/20 16:10:52;;;;;;;3.70;3.50;;;24.50;91.30;;;;;;10524467;28;20577;-80
2022/08/20 16:15:56;;;;;;;3.80;3.60;;;24.70;91.20;;;;;;10492997;28;20293;-79
2022/08/20 16:20:59;;;;;;;3.10;2.90;;;24.80;85.90;;;;;;10482220;28;20272;-80
2022/08/20 16:26:12;;;;;;;4.00;3.80;;;24.90;76.60;;;;;;10459779;28;20270;-80
2022/08/20 16:31:18;;;;;;;3.57;3.37;;;25.00;79.30;;;;;;10484243;28;20366;-79
2022/08/20 16:36:29;;;;;;;3.83;3.40;;;25.10;75.30;;;;;;10483616;28;20314;-80
2022/08/20 16:41:38;;;;;;;4.17;3.97;;;25.10;71.80;;;;;;10463092;28;20208;-79
2022/08/20 16:46:46;;;;;;;4.00;3.60;;;25.20;68.60;;;;;;10476278;28;20201;-79
2022/08/20 16:51:51;;;;;;;3.77;3.60;;;25.10;68.90;;;;;;10482573;28;20331;-79
2022/08/20 16:57:01;;;;;;;3.53;3.43;;;25.10;70.20;;;;;;10486118;28;20761;-79
2022/08/20 17:02:06;;;;;;;3.10;3.00;;;25.00;69.10;;;;;;10462700;28;20244;-79
2022/08/20 17:07:08;;;;;;;3.90;3.70;;;25.10;68.10;;;;;;10460254;28;20220;-79
2022/08/20 17:12:20;;;;;;;4.60;2.90;;;25.10;69.00;;;;;;10462073;28;20217;-80
2022/08/20 17:17:25;;;;;;;3.97;3.77;;;25.00;66.70;;;;;;10491116;28;20280;-80
2022/08/20 17:22:29;;;;;;;3.47;3.27;;;25.00;67.90;;;;;;10531181;28;20535;-81
2022/08/20 17:27:39;;;;;;;3.90;3.70;;;25.00;67.10;;;;;;10491873;28;20199;-81
2022/08/20 17:32:50;;;;;;;6.20;5.70;;;25.00;72.00;;;;;;10487366;28;20217;-81
2022/08/20 17:37:53;;;;;;;5.07;4.67;;;24.90;69.00;;;;;;10525074;28;20272;-80
2022/08/20 17:43:00;;;;;;;4.57;4.17;;;24.90;71.40;;;;;;10487657;28;20192;-79
2022/08/20 17:48:06;;;;;;;3.90;3.70;;;24.80;71.10;;;;;;10524832;28;20220;-80
2022/08/20 17:53:18;;;;;;;4.23;3.83;;;24.70;69.70;;;;;;10537277;28;20212;-79
2022/08/20 17:58:31;;;;;;;4.10;3.80;;;24.70;75.70;;;;;;10522890;28;20655;-80
2022/08/20 18:03:33;;;;;;;4.17;3.77;;;24.60;71.30;;;;;;10538179;28;20184;-80
2022/08/20 18:08:41;;;;;;;3.67;3.47;;;24.50;70.10;;;;;;10493818;28;20209;-81
2022/08/20 18:14:04;;;;;;;3.57;3.47;;;24.50;69.90;;;;;;10478787;28;20227;-80
2022/08/20 18:19:14;;;;;;;3.13;2.93;;;24.40;73.10;;;;;;10473857;28;20595;-80
2022/08/20 18:24:24;;;;;;;3.20;3.10;;;24.30;73.30;;;;;;10467165;28;20204;-80
2022/08/20 18:29:31;;;;;;;3.90;3.70;;;24.20;70.90;;;;;;10494961;28;20220;-82
2022/08/20 18:34:36;;;;;;;3.20;3.10;;;24.10;72.00;;;;;;10532352;28;20243;-81
2022/08/20 18:39:41;;;;;;;3.90;3.53;;;24.00;72.40;;;;;;10500241;28;20216;-81
2022/08/20 18:44:47;;;;;;;3.30;3.10;;;23.90;73.00;;;;;;10488067;28;20193;-79
2022/08/20 18:50:01;;;;;;;3.87;3.67;;;23.70;72.60;;;;;;10503038;28;20212;-81
2022/08/20 18:55:07;;;;;;;2.67;2.57;;;23.50;74.10;;;;;;10494904;28;20221;-80
2022/08/20 19:00:15;;;;;;;3.30;3.10;;;23.40;73.00;;;;;;10501106;28;20216;-81
2022/08/20 19:05:26;;;;;;;4.90;3.50;;;23.20;73.60;;;;;;10486667;28;20197;-80
2022/08/20 19:10:41;;;;;;;3.50;3.30;;;23.00;73.00;;;;;;10469853;28;20228;-80
2022/08/20 19:15:49;;;;;;;3.70;3.50;;;22.90;73.70;;;;;;10482961;28;20306;-81
2022/08/20 19:20:58;;;;;;;4.10;3.77;;;22.80;75.00;;;;;;10476205;28;20688;-80
2022/08/20 19:26:04;;;;;;;4.10;3.80;;;22.70;74.80;;;;;;10492147;28;20189;-80
2022/08/20 19:31:12;;;;;;;3.60;3.40;;;22.60;74.50;;;;;;10494719;28;20225;-79
2022/08/20 19:36:18;;;;;;;4.10;3.80;;;22.50;74.10;;;;;;10498115;28;20313;-81
2022/08/20 19:41:26;;;;;;;4.10;3.70;;;22.50;74.00;;;;;;10553156;28;20627;-80
2022/08/20 19:46:34;;;;;;;3.03;2.93;;;22.50;73.20;;;;;;10503379;28;20240;-80
2022/08/20 19:51:43;;;;;;;3.40;3.20;;;22.50;72.00;;;;;;10553824;28;20374;-82
2022/08/20 19:56:45;;;;;;;3.37;3.17;;;22.40;71.30;;;;;;10487503;28;20716;-81
2022/08/20 20:01:57;;;;;;;4.40;3.70;;;22.40;70.70;;;;;;10549866;28;20283;-82
2022/08/20 20:06:59;;;;;;;3.57;3.37;;;22.40;70.00;;;;;;10512669;28;20193;-80
2022/08/20 20:12:07;;;;;;;3.60;3.40;;;22.40;70.10;;;;;;10550692;28;20234;-81
2022/08/20 20:17:15;;;;;;;3.60;3.30;;;22.30;70.80;;;;;;10514695;28;20631;-82
2022/08/20 20:22:24;;;;;;;3.93;3.63;;;22.30;70.50;;;;;;10530687;28;20228;-80
2022/08/20 20:27:28;;;;;;;3.70;3.40;;;22.30;70.70;;;;;;10460456;28;20656;-81
2022/08/20 20:32:33;;;;;;;3.63;3.43;;;22.30;70.60;;;;;;10546379;28;20295;-81
2022/08/20 20:37:38;;;;;;;3.97;3.67;;;22.20;70.20;;;;;;10510623;28;20230;-81
2022/08/20 20:42:41;;;;;;;3.20;3.00;;;22.30;70.40;;;;;;10545565;28;20257;-80
2022/08/20 20:47:50;;;;;;;4.00;3.23;;;22.30;70.80;;;;;;10511574;28;20196;-82
2022/08/20 20:52:54;;;;;;;3.70;3.43;;;22.20;71.00;;;;;;10529190;28;20303;-82
2022/08/20 20:57:57;;;;;;;4.20;3.90;;;22.10;70.60;;;;;;10460772;28;20261;-80
2022/08/20 21:03:01;;;;;;;3.83;3.20;;;22.10;70.60;;;;;;10517009;28;20220;-80
2022/08/20 21:08:06;;;;;;;4.30;4.00;;;22.10;69.40;;;;;;10481365;28;20265;-80
2022/08/20 21:13:09;;;;;;;3.97;3.77;;;22.00;70.40;;;;;;10516623;28;20218;-80
2022/08/20 21:18:12;;;;;;;4.00;3.70;;;21.90;70.70;;;;;;10479379;28;20205;-80
2022/08/20 21:23:14;;;;;;;4.00;3.70;;;21.90;71.10;;;;;;10497534;28;20646;-80
2022/08/20 21:28:17;;;;;;;4.00;3.80;;;21.80;71.10;;;;;;10460580;28;20358;-79
2022/08/20 21:33:21;;;;;;;3.60;3.30;;;21.80;70.40;;;;;;10446704;28;20700;-79
2022/08/20 21:38:23;;;;;;;3.97;3.63;;;21.80;69.70;;;;;;10447072;28;20225;-78
2022/08/20 21:43:25;;;;;;;4.03;3.73;;;21.80;71.10;;;;;;10440157;28;20295;-79
2022/08/20 21:48:28;;;;;;;3.90;3.60;;;21.80;70.50;;;;;;10482633;28;20307;-80
2022/08/20 21:53:30;;;;;;;3.83;3.60;;;21.80;71.40;;;;;;10476447;28;20677;-80
2022/08/20 21:58:32;;;;;;;3.00;2.90;;;21.80;71.20;;;;;;10453655;28;20296;-80
2022/08/20 22:03:37;;;;;;;4.17;3.87;;;21.80;70.30;;;;;;10461138;28;20268;-79
2022/08/20 22:08:39;;;;;;;5.10;3.27;;;21.70;70.90;;;;;;10457044;28;20702;-79
2022/08/20 22:13:41;;;;;;;3.60;3.40;;;21.70;71.00;;;;;;10472746;28;20231;-80
2022/08/20 22:18:46;;;;;;;4.03;3.37;;;21.60;70.90;;;;;;10441973;28;20339;-79
2022/08/20 22:23:49;;;;;;;4.30;3.43;;;21.50;72.30;;;;;;10465463;28;20201;-79
2022/08/20 22:28:51;;;;;;;3.43;3.13;;;21.40;71.00;;;;;;10451448;28;20225;-79
2022/08/20 22:33:56;;;;;;;3.83;3.53;;;21.40;71.90;;;;;;10465397;28;20224;-79
2022/08/20 22:38:58;;;;;;;4.27;3.90;;;21.40;72.10;;;;;;10446184;28;20232;-79
2022/08/20 22:44:00;;;;;;;4.50;4.10;;;21.30;71.90;;;;;;10464592;28;20288;-79
2022/08/20 22:49:04;;;;;;;4.20;3.30;;;21.30;72.30;;;;;;10483947;28;20391;-79
2022/08/20 22:54:10;;;;;;;3.00;2.80;;;21.30;72.70;;;;;;10465161;28;20216;-79
2022/08/20 22:59:12;;;;;;;4.03;3.73;;;21.20;73.00;;;;;;10480119;28;20217;-79
2022/08/20 23:04:23;;;;;;;4.07;3.77;;;21.20;73.40;;;;;;10444371;28;20193;-79
2022/08/20 23:09:25;;;;;;;4.03;3.73;;;21.10;73.60;;;;;;10483725;28;20231;-79
2022/08/20 23:14:27;;;;;;;4.03;3.67;;;21.10;73.90;;;;;;10448076;28;20225;-79
2022/08/20 23:19:31;;;;;;;5.70;3.63;;;21.10;73.60;;;;;;10499629;28;20291;-80
2022/08/20 23:24:34;;;;;;;3.70;3.40;;;21.00;73.90;;;;;;10534578;28;20617;-79
2022/08/20 23:29:36;;;;;;;3.57;3.27;;;21.00;74.40;;;;;;10535997;28;20668;-80
2022/08/20 23:34:40;;;;;;;3.60;3.30;;;20.90;74.10;;;;;;10487268;28;20303;-79
2022/08/20 23:39:44;;;;;;;5.37;3.47;;;20.90;74.10;;;;;;10543585;28;20269;-78
2022/08/20 23:44:47;;;;;;;3.57;3.23;;;20.80;73.90;;;;;;10487928;28;20195;-79
2022/08/20 23:49:51;;;;;;;3.63;3.43;;;20.80;73.90;;;;;;10505247;28;20306;-79
2022/08/20 23:54:53;;;;;;;3.47;3.20;;;20.70;73.00;;;;;;10495356;28;20221;-79
2022/08/20 23:59:55;;;;;;;5.27;3.23;;;20.70;73.70;;;;;;10516999;28;20224;-79
